Time;durP1;ratioP1;P1;durP2;ratioP2;P2;SDS_P1;SDS_P2;PMS_P1;PMS_P2;Temp;Humidity;BMP_temperature;BMP_pressure;BME280_temperature;BME280_humidity;BME280_pressure;Samples;Min_cycle;Max_cycle;Signal;HPM_P1;HPM_P2
2021/07/20 00:00:00;;;;;;;6.50;2.45;;;12.30;99.90;;;11.03;100.00;102499.59;5010285;28;20066;-72
2021/07/20 00:02:39;;;;;;;8.35;2.78;;;12.30;99.90;;;11.01;100.00;102526.91;5014423;28;20415;-71
2021/07/20 00:05:10;;;;;;;3.88;2.45;;;12.30;99.90;;;10.98;100.00;102563.88;5013984;28;20065;-72
2021/07/20 00:07:36;;;;;;;7.18;2.65;;;12.30;99.90;;;10.95;100.00;102662.34;5010667;28;21973;-72
2021/07/20 00:10:10;;;;;;;7.68;2.50;;;12.20;99.90;;;10.94;100.00;102651.81;5012790;28;20049;-72
2021/07/20 00:12:37;;;;;;;7.53;2.47;;;12.20;99.90;;;10.92;100.00;102648.31;5024290;28;20443;-71
2021/07/20 00:15:11;;;;;;;6.55;2.72;;;12.20;99.90;;;10.91;100.00;102572.78;5002541;28;20060;-72
2021/07/20 00:17:42;;;;;;;8.27;2.40;;;12.20;99.90;;;10.91;100.00;104921.72;4982257;28;20080;-72
2021/07/20 00:20:15;;;;;;;11.07;3.00;;;12.20;99.90;;;10.89;100.00;103806.41;4995216;28;20545;-71
2021/07/20 00:22:42;;;;;;;8.43;3.10;;;12.20;99.90;;;10.86;100.00;103456.69;4992996;28;20549;-72
2021/07/20 00:25:11;;;;;;;5.13;3.33;;;12.20;99.90;;;10.83;100.00;103467.25;5008021;28;20467;-71
2021/07/20 00:27:37;;;;;;;6.10;2.65;;;12.10;99.90;;;10.80;100.00;103427.72;4992345;28;20057;-72
2021/07/20 00:30:05;;;;;;;10.52;3.38;;;12.10;99.90;;;10.81;100.00;103431.22;5010492;28;20220;-71
2021/07/20 00:32:32;;;;;;;12.70;2.80;;;12.10;99.90;;;10.78;100.00;103368.88;5015145;28;20113;-71
2021/07/20 00:34:58;;;;;;;6.88;2.85;;;12.10;99.90;;;10.74;100.00;103201.13;5012686;28;20054;-72
2021/07/20 00:37:24;;;;;;;6.68;2.83;;;12.00;99.90;;;10.68;100.00;103191.47;5010742;28;20071;-72
2021/07/20 00:39:50;;;;;;;7.32;3.47;;;12.00;99.90;;;10.62;100.00;103157.28;5012506;28;20154;-71
2021/07/20 00:42:16;;;;;;;6.50;2.35;;;11.90;99.90;;;10.55;100.00;103117.84;5009796;28;20091;-72
2021/07/20 00:44:42;;;;;;;5.95;2.80;;;11.80;99.90;;;10.52;100.00;103078.31;5012769;28;20112;-72
2021/07/20 00:47:08;;;;;;;7.65;2.78;;;11.80;99.90;;;10.49;100.00;103059.94;5010546;28;20076;-72
2021/07/20 00:49:34;;;;;;;6.68;3.10;;;11.80;99.90;;;10.56;100.00;103120.47;5013598;28;20088;-72
2021/07/20 00:52:00;;;;;;;6.10;2.70;;;11.90;99.90;;;10.61;100.00;103128.31;4983442;28;20510;-72
2021/07/20 00:54:26;;;;;;;17.10;3.38;;;11.90;99.90;;;10.60;100.00;103098.44;4984307;28;20069;-72
2021/07/20 00:56:52;;;;;;;7.07;2.70;;;11.90;99.90;;;10.58;100.00;103110.78;5001105;28;20090;-72
2021/07/20 00:59:20;;;;;;;6.70;2.70;;;11.90;99.90;;;10.55;100.00;103057.25;4987597;28;20071;-72
2021/07/20 01:01:46;;;;;;;11.77;3.10;;;11.80;99.90;;;10.49;100.00;103066.06;4981677;28;20089;-72
2021/07/20 01:04:12;;;;;;;6.72;2.90;;;11.80;99.90;;;10.51;100.00;103076.59;4981773;28;20640;-72
2021/07/20 01:06:39;;;;;;;7.10;3.25;;;11.80;99.90;;;10.51;100.00;103056.38;4976348;28;20063;-72
2021/07/20 01:09:08;;;;;;;8.93;3.15;;;11.90;99.90;;;10.53;100.00;103104.66;5006558;28;20072;-71
2021/07/20 01:11:35;;;;;;;5.20;3.03;;;11.80;99.90;;;10.54;100.00;103108.16;4991300;28;20076;-71
2021/07/20 01:14:03;;;;;;;6.72;2.92;;;11.90;99.90;;;10.56;100.00;103098.50;4991162;28;20065;-72
2021/07/20 01:16:33;;;;;;;9.00;3.60;;;11.80;99.90;;;10.53;100.00;103104.66;4992832;28;20092;-72
2021/07/20 01:19:05;;;;;;;9.60;3.38;;;11.80;99.90;;;10.49;100.00;103010.75;5008527;28;20489;-72
2021/07/20 01:21:36;;;;;;;9.13;2.90;;;11.80;99.90;;;10.44;100.00;103039.75;5018594;28;20072;-72
2021/07/20 01:24:15;;;;;;;10.13;3.05;;;11.70;99.90;;;10.43;100.00;103266.28;5018394;28;20079;-72
2021/07/20 01:26:43;;;;;;;6.10;3.00;;;11.70;99.90;;;10.40;100.00;103177.63;5013484;28;20524;-71
2021/07/20 01:29:11;;;;;;;7.43;2.90;;;11.70;99.90;;;10.39;100.00;103231.22;5025064;28;20061;-72
2021/07/20 01:31:43;;;;;;;6.22;3.13;;;11.70;99.90;;;10.39;100.00;103257.56;5009629;28;20073;-72
2021/07/20 01:34:14;;;;;;;6.85;3.00;;;11.70;99.90;;;10.37;100.00;103200.50;4993694;28;20072;-72
2021/07/20 01:36:44;;;;;;;7.13;3.10;;;11.70;99.90;;;10.31;100.00;103269.88;4990632;28;20416;-72
2021/07/20 01:39:14;;;;;;;6.53;2.75;;;11.60;99.90;;;10.14;100.00;103164.59;4982030;28;20196;-72
2021/07/20 01:41:42;;;;;;;4.60;2.53;;;11.40;99.90;;;9.96;100.00;103207.69;4990333;28;21499;-72
2021/07/20 01:44:13;;;;;;;3.80;2.78;;;11.20;99.90;;;9.85;100.00;103010.38;4978482;28;20825;-72
2021/07/20 01:46:41;;;;;;;5.28;2.90;;;11.20;99.90;;;9.82;100.00;103062.16;5009547;28;20092;-72
2021/07/20 01:49:13;;;;;;;5.13;2.38;;;11.10;99.90;;;9.72;100.00;103078.88;5010737;28;20089;-72
2021/07/20 01:51:41;;;;;;;9.43;3.20;;;11.10;99.90;;;9.80;100.00;103148.13;5001524;28;20069;-72
2021/07/20 01:54:09;;;;;;;9.73;3.05;;;11.10;99.90;;;9.76;100.00;103235.84;5010594;28;20513;-72
2021/07/20 01:56:36;;;;;;;11.90;3.10;;;11.10;99.90;;;9.68;100.00;103164.84;5008603;28;20057;-73
2021/07/20 01:59:04;;;;;;;8.73;3.10;;;11.00;99.90;;;9.67;100.00;103081.53;5009832;28;20127;-72
2021/07/20 02:01:40;;;;;;;7.88;3.17;;;11.10;99.90;;;9.72;100.00;103120.97;5018472;28;20556;-72
2021/07/20 02:09:27;;;;;;;15.20;3.47;;;11.20;99.90;;;9.84;100.00;103278.78;4987920;28;20090;-72
2021/07/20 02:11:54;;;;;;;12.68;4.10;;;11.20;99.90;;;9.88;100.00;103413.88;4978021;28;20575;-72
2021/07/20 02:14:28;;;;;;;9.07;3.30;;;11.20;99.90;;;9.92;100.00;103427.03;5006256;28;20152;-72
2021/07/20 02:16:59;;;;;;;7.50;3.50;;;11.30;99.90;;;9.90;100.00;103478.81;5007608;28;20346;-72
2021/07/20 02:19:43;;;;;;;8.77;3.50;;;11.30;99.90;;;9.93;100.00;103412.97;5010035;28;20424;-72
2021/07/20 02:22:14;;;;;;;10.48;4.45;;;11.30;99.90;;;9.93;100.00;103507.75;5006331;28;20069;-72
2021/07/20 02:24:42;;;;;;;11.10;4.13;;;11.30;99.90;;;9.95;100.00;103452.47;5011425;28;20517;-71
2021/07/20 02:27:10;;;;;;;9.55;3.95;;;11.30;99.90;;;10.00;100.00;103517.41;4992693;28;20070;-72
2021/07/20 02:29:39;;;;;;;9.50;4.35;;;11.30;99.90;;;10.05;100.00;103507.75;5010147;28;20117;-72
2021/07/20 02:32:08;;;;;;;10.85;3.60;;;11.40;99.90;;;10.05;100.00;103547.25;5008825;28;20470;-71
2021/07/20 02:34:37;;;;;;;6.80;3.50;;;11.40;99.90;;;10.03;100.00;103493.72;5009425;28;20092;-72
2021/07/20 02:37:06;;;;;;;9.50;3.83;;;11.30;99.90;;;9.99;100.00;103427.91;5010718;28;20080;-72
2021/07/20 02:39:35;;;;;;;9.13;3.55;;;11.30;99.90;;;10.01;100.00;103400.69;4993403;28;20061;-72
2021/07/20 02:42:02;;;;;;;10.52;4.28;;;11.40;99.90;;;10.06;100.00;103366.47;5025204;28;20074;-72
2021/07/20 02:44:29;;;;;;;10.20;4.05;;;11.40;99.90;;;10.09;100.00;103386.66;5025181;28;20156;-71
2021/07/20 02:46:57;;;;;;;11.10;3.60;;;11.40;99.90;;;10.07;100.00;103357.69;5015283;28;20064;-71
2021/07/20 02:49:24;;;;;;;8.65;3.75;;;11.40;99.90;;;10.05;100.00;103447.19;5022576;28;20108;-72
2021/07/20 02:51:52;;;;;;;7.18;3.45;;;11.40;99.90;;;10.01;100.00;103352.44;5007374;28;20060;-72
2021/07/20 02:54:24;;;;;;;12.63;4.18;;;11.40;99.90;;;10.05;100.00;103428.78;4990093;28;20062;-72
2021/07/20 02:56:52;;;;;;;9.60;3.90;;;11.40;99.90;;;10.09;100.00;103403.34;4974191;28;20076;-71
2021/07/20 02:59:23;;;;;;;9.20;3.65;;;11.50;99.90;;;10.13;100.00;103455.09;4989493;28;20098;-72
2021/07/20 03:01:57;;;;;;;8.38;3.85;;;11.40;99.90;;;10.09;100.00;103499.88;4998878;28;20089;-72
2021/07/20 03:04:24;;;;;;;8.23;4.22;;;11.40;99.90;;;10.07;100.00;103553.38;4989369;28;20136;-72
2021/07/20 03:06:57;;;;;;;8.43;3.80;;;11.40;99.90;;;10.04;100.00;103534.97;4989698;28;20070;-72
2021/07/20 03:09:26;;;;;;;10.30;4.07;;;11.40;99.90;;;10.04;100.00;103510.38;4989861;28;20050;-73
2021/07/20 03:12:20;;;;;;;15.48;4.20;;;11.40;99.90;;;10.06;100.00;103514.78;5005947;28;20062;-72
2021/07/20 03:14:48;;;;;;;12.95;4.05;;;11.40;99.90;;;10.09;100.00;103573.59;4968327;28;20078;-71
2021/07/20 03:17:15;;;;;;;11.90;4.15;;;11.50;99.90;;;10.13;100.00;103533.19;4981597;28;20409;-72
2021/07/20 03:19:45;;;;;;;9.60;4.28;;;11.40;99.90;;;10.13;100.00;103533.19;4971997;28;20055;-73
2021/07/20 03:22:15;;;;;;;15.13;4.38;;;11.50;99.90;;;10.20;100.00;103548.13;4990926;28;20081;-72
2021/07/20 03:24:44;;;;;;;9.18;3.95;;;11.60;99.90;;;10.23;100.00;103572.69;4991161;28;20435;-72
2021/07/20 03:27:11;;;;;;;12.48;4.13;;;11.50;99.90;;;10.26;100.00;103471.78;4995390;28;20052;-72
2021/07/20 03:29:44;;;;;;;10.55;4.93;;;11.60;99.90;;;10.31;100.00;103551.66;5014243;28;20065;-72
2021/07/20 03:32:13;;;;;;;15.85;4.57;;;11.70;99.90;;;10.36;100.00;103518.28;5012176;28;20150;-72
2021/07/20 03:34:41;;;;;;;11.38;4.38;;;11.70;99.90;;;10.39;100.00;103509.53;5011795;28;20097;-72
2021/07/20 03:37:09;;;;;;;14.68;4.45;;;11.70;99.90;;;10.48;100.00;103463.84;5026328;28;20110;-72
2021/07/20 03:39:36;;;;;;;6.90;3.90;;;11.80;99.90;;;10.53;100.00;103509.50;5012819;28;20144;-71
2021/07/20 03:42:03;;;;;;;12.68;4.30;;;11.80;99.90;;;10.53;100.00;103555.16;5011583;28;20069;-72
2021/07/20 03:44:30;;;;;;;14.32;4.38;;;11.90;99.90;;;10.60;100.00;103472.56;5013641;28;20058;-72
2021/07/20 03:46:58;;;;;;;7.70;4.20;;;11.90;99.90;;;10.65;100.00;103469.97;5004481;28;20118;-72
2021/07/20 03:49:28;;;;;;;9.40;3.90;;;12.00;99.90;;;10.64;100.00;103458.50;5004551;28;20059;-72
2021/07/20 03:51:58;;;;;;;6.45;3.72;;;12.00;99.90;;;10.72;100.00;103397.88;5013246;28;20068;-72
2021/07/20 03:54:28;;;;;;;9.80;4.10;;;12.10;99.90;;;10.81;100.00;103368.84;5011973;28;20056;-72
2021/07/20 03:56:56;;;;;;;10.43;3.97;;;12.10;99.90;;;10.84;100.00;103363.56;5014821;28;20174;-72
2021/07/20 03:59:26;;;;;;;7.88;4.15;;;12.10;99.90;;;10.93;100.00;103382.84;5012092;28;20389;-72
2021/07/20 04:01:56;;;;;;;10.18;4.90;;;12.40;99.90;;;11.29;100.00;103435.38;4996791;28;20080;-72
2021/07/20 04:04:24;;;;;;;9.35;4.38;;;13.00;99.90;;;12.03;100.00;103500.84;4993958;28;20063;-72
2021/07/20 04:06:53;;;;;;;7.88;4.20;;;13.90;99.90;;;13.03;100.00;103644.38;5012021;28;21407;-73
2021/07/20 04:09:20;;;;;;;11.77;3.15;;;14.80;99.90;;;13.74;96.92;103595.00;5007793;28;20157;-73
2021/07/20 04:11:46;;;;;;;8.77;2.67;;;15.50;99.90;;;14.33;92.41;103570.25;4991216;28;20088;-72
2021/07/20 04:14:14;;;;;;;6.70;2.80;;;15.70;99.90;;;14.23;91.73;103489.13;4994821;28;20022;-73
2021/07/20 04:16:42;;;;;;;6.90;2.67;;;15.40;99.90;;;13.82;92.61;103424.50;4983651;28;20076;-72
2021/07/20 04:19:09;;;;;;;7.90;2.55;;;15.00;99.90;;;13.46;95.01;103363.38;5000091;28;20462;-72
2021/07/20 04:21:38;;;;;;;7.00;2.72;;;14.60;99.90;;;13.30;96.28;103371.56;4983884;28;20187;-73
2021/07/20 04:24:04;;;;;;;5.28;3.03;;;14.50;99.90;;;13.26;97.66;103350.41;4992060;28;20545;-72
2021/07/20 04:26:32;;;;;;;5.22;2.70;;;15.00;99.90;;;14.13;94.59;103460.16;5012181;28;20118;-73
2021/07/20 04:28:58;;;;;;;6.47;2.83;;;15.90;99.90;;;15.01;90.50;103521.25;5010754;28;20030;-72
2021/07/20 04:31:29;;;;;;;5.70;2.55;;;16.90;99.90;;;15.85;86.44;103553.03;5012181;28;20474;-73
2021/07/20 04:33:55;;;;;;;7.28;2.63;;;17.80;99.90;;;16.58;82.10;103579.56;5010030;28;20156;-73
2021/07/20 04:36:23;;;;;;;4.40;2.20;;;18.20;99.90;;;17.10;79.81;103586.13;4986762;28;20446;-72
2021/07/20 04:38:50;;;;;;;6.47;2.35;;;19.10;99.90;;;18.02;75.30;104295.22;5010758;28;20482;-72
2021/07/20 04:41:20;;;;;;;9.70;2.45;;;19.60;99.90;;;18.40;72.98;104199.22;4994304;28;20022;-73
2021/07/20 04:43:47;;;;;;;9.95;2.08;;;19.70;99.90;;;18.42;73.20;103906.59;4992506;28;20053;-71
2021/07/20 04:46:16;;;;;;;4.90;2.13;;;20.20;99.90;;;18.97;72.70;103830.16;4991386;28;20038;-73
2021/07/20 04:48:45;;;;;;;8.38;2.15;;;21.20;99.90;;;19.61;69.77;103942.03;4994169;28;20045;-74
2021/07/20 04:51:12;;;;;;;5.90;2.28;;;21.70;99.90;;;19.87;67.51;103687.13;4976564;28;20072;-73
2021/07/20 04:53:41;;;;;;;5.07;2.10;;;21.90;99.90;;;20.18;67.13;103410.34;4991544;28;20482;-73
2021/07/20 04:56:07;;;;;;;7.55;2.25;;;21.70;99.90;;;19.99;67.01;103438.84;4991984;28;20690;-72
2021/07/20 04:58:34;;;;;;;5.50;2.58;;;21.40;99.90;;;20.05;67.29;103304.88;4974416;28;20494;-73
2021/07/20 05:01:04;;;;;;;7.20;2.38;;;21.80;99.90;;;20.28;67.33;103236.94;4967212;28;20050;-73
2021/07/20 05:03:33;;;;;;;4.50;2.03;;;21.50;99.90;;;20.25;68.42;103219.19;4976584;28;20025;-73
2021/07/20 05:06:03;;;;;;;7.05;1.90;;;22.20;99.90;;;20.76;67.24;103339.91;4994446;28;20063;-72
2021/07/20 05:08:33;;;;;;;6.68;2.25;;;23.10;99.90;;;21.49;66.05;103270.19;5012053;28;20387;-73
2021/07/20 05:11:00;;;;;;;5.80;2.10;;;23.80;99.90;;;21.88;62.44;103229.63;5000780;28;20036;-73
2021/07/20 05:13:27;;;;;;;4.80;2.58;;;23.90;99.90;;;22.03;61.96;103213.59;5011934;28;20087;-73
2021/07/20 05:16:00;;;;;;;4.07;2.08;;;24.20;99.90;;;22.62;60.69;103437.59;4992860;28;20092;-73
2021/07/20 05:18:27;;;;;;;5.60;2.05;;;24.70;99.90;;;22.63;60.04;103438.47;5004218;28;20021;-72
2021/07/20 05:20:59;;;;;;;4.82;2.08;;;23.80;99.90;;;22.01;61.80;103299.56;5006391;28;20057;-72
2021/07/20 05:23:27;;;;;;;7.43;2.20;;;23.50;99.90;;;22.37;60.88;103333.38;4975842;28;20030;-73
2021/07/20 05:25:59;;;;;;;5.05;2.17;;;24.00;99.90;;;22.66;61.82;103253.03;4995288;28;20256;-73
2021/07/20 05:28:29;;;;;;;6.15;2.05;;;24.60;99.90;;;23.31;58.48;103258.16;5002371;28;20021;-73
2021/07/20 05:31:01;;;;;;;4.05;2.00;;;25.40;99.90;;;23.84;57.25;103353.50;4993859;28;20041;-73
2021/07/20 05:33:29;;;;;;;7.82;2.40;;;25.60;99.90;;;23.93;54.98;103288.38;5012889;28;20088;-73
2021/07/20 05:36:00;;;;;;;4.32;2.00;;;24.60;99.90;;;23.11;59.25;103190.34;5011155;28;20433;-72
2021/07/20 05:38:28;;;;;;;5.82;2.00;;;25.10;99.90;;;23.44;59.36;103180.28;5010934;28;20025;-72
2021/07/20 05:40:58;;;;;;;4.38;1.92;;;26.10;99.90;;;24.56;55.20;103191.91;5024211;28;20073;-73
2021/07/20 05:43:30;;;;;;;4.28;2.15;;;25.80;99.90;;;24.30;56.32;103085.94;5002947;28;20044;-73
2021/07/20 05:46:02;;;;;;;5.40;2.17;;;25.80;99.90;;;23.93;56.14;102967.31;5010500;28;20397;-73
2021/07/20 05:48:30;;;;;;;4.60;2.17;;;24.80;99.90;;;22.87;59.14;102859.59;5017235;28;20053;-73
2021/07/20 05:51:03;;;;;;;9.40;2.30;;;23.50;99.90;;;22.25;62.49;102816.16;5010136;28;20053;-73
2021/07/20 05:53:32;;;;;;;11.45;2.58;;;23.30;99.90;;;22.23;64.31;102818.09;4980950;28;20405;-73
2021/07/20 05:56:03;;;;;;;5.53;2.20;;;23.80;99.90;;;22.17;62.87;102787.09;5007742;28;20046;-71
2021/07/20 05:58:30;;;;;;;8.40;2.35;;;23.70;99.90;;;22.14;64.34;102798.03;4995218;28;20092;-73
2021/07/20 06:01:04;;;;;;;10.73;2.83;;;23.50;99.90;;;20.72;69.19;102657.50;4991157;28;20057;-72
2021/07/20 06:03:33;;;;;;;7.35;2.60;;;22.30;99.90;;;19.76;75.62;102683.38;4973138;28;20377;-73
2021/07/20 06:06:00;;;;;;;8.15;2.92;;;21.60;99.90;;;19.32;78.64;102650.06;4991312;28;20479;-72
2021/07/20 06:08:28;;;;;;;5.97;3.35;;;21.30;99.90;;;19.09;79.77;102693.97;4990193;28;20053;-72
2021/07/20 06:10:58;;;;;;;8.43;3.03;;;20.50;99.90;;;18.24;83.59;102610.16;4980899;28;20026;-72
2021/07/20 06:13:28;;;;;;;9.50;3.35;;;20.20;99.90;;;18.68;83.72;102688.91;4982867;28;20061;-72
2021/07/20 06:15:56;;;;;;;11.68;3.67;;;20.60;99.90;;;19.37;80.93;102720.16;4984959;28;20014;-72
2021/07/20 06:18:22;;;;;;;8.80;3.33;;;20.80;99.90;;;19.59;80.31;102701.16;5007769;28;20041;-73
2021/07/20 06:20:59;;;;;;;8.90;3.47;;;20.60;99.90;;;18.54;84.01;102580.22;5008145;28;20037;-72
2021/07/20 06:23:33;;;;;;;16.02;3.90;;;20.20;99.90;;;18.66;83.79;102610.75;4986078;28;20037;-72
2021/07/20 06:26:01;;;;;;;10.63;3.33;;;20.00;99.90;;;18.80;84.16;102629.63;5008101;28;20026;-72
2021/07/20 06:28:28;;;;;;;10.30;3.40;;;20.10;99.90;;;18.84;84.46;102625.84;5026649;28;20094;-71
2021/07/20 06:30:55;;;;;;;8.25;3.72;;;20.10;99.90;;;18.79;84.48;102616.34;5034215;28;20055;-73
2021/07/20 06:33:21;;;;;;;11.80;3.58;;;19.70;99.90;;;18.11;87.63;102536.19;4994354;28;20061;-72
2021/07/20 06:35:48;;;;;;;11.25;3.95;;;19.40;99.90;;;18.04;88.99;102559.63;5017936;28;20036;-72
2021/07/20 06:38:21;;;;;;;6.63;3.78;;;19.70;99.90;;;18.57;87.12;102628.06;5009966;28;20018;-72
2021/07/20 06:40:54;;;;;;;7.18;3.78;;;20.30;99.90;;;19.45;85.15;102696.53;4989422;28;20042;-71
2021/07/20 06:43:22;;;;;;;7.15;3.00;;;21.20;99.90;;;20.07;79.85;102693.25;4999079;28;20566;-72
2021/07/20 06:45:50;;;;;;;7.57;3.05;;;21.90;99.90;;;20.96;77.42;102762.28;5019800;28;20058;-71
2021/07/20 06:48:21;;;;;;;5.88;2.95;;;22.70;99.90;;;21.58;72.44;102759.50;5014332;28;20064;-72
2021/07/20 06:50:52;;;;;;;12.65;3.08;;;23.00;99.90;;;21.62;73.40;102747.63;4994109;28;20033;-72
2021/07/20 06:53:19;;;;;;;13.85;3.10;;;24.00;99.90;;;23.03;68.08;102818.31;5009822;28;20045;-72
2021/07/20 06:55:59;;;;;;;7.30;2.65;;;24.10;99.90;;;22.07;70.14;102681.31;4992563;28;20068;-73
2021/07/20 06:58:27;;;;;;;9.32;2.30;;;23.90;99.90;;;22.10;70.59;102681.16;5013893;28;20385;-73
2021/07/20 07:00:59;;;;;;;7.25;2.35;;;24.20;99.90;;;22.64;69.81;102708.03;5013203;28;20520;-72
2021/07/20 07:04:18;;;;;;;8.40;2.47;;;23.60;99.90;;;21.26;73.97;102582.78;5016733;28;20073;-72
2021/07/20 07:06:47;;;;;;;7.45;2.70;;;23.20;99.90;;;22.30;71.66;102694.13;5018692;28;21032;-73
2021/07/20 07:09:14;;;;;;;11.07;2.50;;;24.40;99.90;;;23.76;65.94;102793.63;5014174;28;20022;-72
2021/07/20 07:11:44;;;;;;;7.07;2.28;;;25.30;99.90;;;24.38;63.70;102818.84;5014078;28;20148;-72
2021/07/20 07:14:14;;;;;;;7.28;2.45;;;25.20;99.90;;;23.79;65.42;102749.53;5012898;28;20026;-72
2021/07/20 07:16:43;;;;;;;7.05;2.47;;;25.70;99.90;;;24.77;62.06;102821.38;5012931;28;20030;-72
2021/07/20 07:19:12;;;;;;;6.25;1.98;;;25.30;99.90;;;22.98;65.64;102608.19;5012666;28;20107;-73
2021/07/20 07:21:43;;;;;;;6.55;2.50;;;23.70;99.90;;;21.22;71.00;102483.00;5015882;28;20034;-72
2021/07/20 07:24:17;;;;;;;5.22;1.98;;;22.50;99.90;;;20.34;75.90;102435.84;5012175;28;20148;-72
2021/07/20 07:26:45;;;;;;;6.38;2.38;;;21.60;99.90;;;19.68;80.50;102408.53;5022978;28;20037;-72
2021/07/20 07:29:14;;;;;;;5.65;2.50;;;20.80;99.90;;;19.16;83.46;102391.00;5010641;28;20441;-72
2021/07/20 07:31:44;;;;;;;6.68;2.28;;;20.60;99.90;;;19.05;83.24;102388.94;5013090;28;20037;-73
2021/07/20 07:34:11;;;;;;;9.55;3.05;;;20.20;99.90;;;18.76;84.45;102374.50;5012495;28;20064;-71
2021/07/20 07:36:39;;;;;;;8.32;2.70;;;20.10;99.90;;;18.70;84.55;102382.00;5013150;28;20104;-72
2021/07/20 07:39:07;;;;;;;6.93;2.80;;;20.10;99.90;;;18.88;83.92;102405.03;5011587;28;20091;-72
2021/07/20 07:41:39;;;;;;;8.10;2.65;;;20.30;99.90;;;19.15;82.68;102420.47;5002449;28;20093;-72
2021/07/20 07:44:14;;;;;;;7.00;2.25;;;20.30;99.90;;;19.09;81.72;102428.81;5021468;28;20136;-72
2021/07/20 07:46:43;;;;;;;6.32;2.28;;;20.00;99.90;;;18.65;82.24;102388.44;5016466;28;20025;-72
2021/07/20 07:49:11;;;;;;;11.70;3.05;;;19.60;99.90;;;18.26;84.83;102359.44;5011504;28;20440;-72
2021/07/20 07:51:41;;;;;;;7.30;2.40;;;19.40;99.90;;;18.16;85.39;102379.53;5028818;28;20085;-72
2021/07/20 07:54:08;;;;;;;6.82;2.30;;;19.40;99.90;;;18.37;86.13;102393.53;5011295;28;20087;-72
2021/07/20 07:56:34;;;;;;;6.15;2.60;;;19.50;99.90;;;18.44;84.88;102402.94;5013328;28;20033;-71
2021/07/20 07:59:02;;;;;;;7.38;2.78;;;19.60;99.90;;;18.62;84.81;102420.63;5009698;28;20029;-72
2021/07/20 08:01:31;;;;;;;5.90;2.40;;;19.70;99.90;;;18.52;84.97;102406.06;5013303;28;20103;-72
2021/07/20 08:03:59;;;;;;;7.65;2.55;;;19.60;99.90;;;18.34;83.57;102380.38;5013232;28;20056;-71
2021/07/20 08:06:29;;;;;;;6.53;2.70;;;19.50;99.90;;;18.41;84.26;102400.44;5011986;28;20485;-72
2021/07/20 08:09:00;;;;;;;8.02;2.88;;;19.60;99.90;;;18.51;83.98;102400.78;5003177;28;20037;-72
2021/07/20 08:11:29;;;;;;;10.35;2.88;;;19.60;99.90;;;18.66;84.02;102416.00;5011270;28;20477;-72
2021/07/20 08:14:00;;;;;;;8.70;2.60;;;19.80;99.90;;;18.87;82.95;102434.47;5002214;28;20229;-72
2021/07/20 08:16:31;;;;;;;7.70;2.60;;;20.00;99.90;;;19.05;80.53;102462.84;5012455;28;20543;-72
2021/07/20 08:19:00;;;;;;;15.35;2.95;;;20.10;99.90;;;18.95;79.06;102434.94;5018653;28;20071;-72
2021/07/20 08:21:28;;;;;;;14.25;2.92;;;20.00;99.90;;;18.77;78.34;102407.41;5003055;28;20069;-72
2021/07/20 08:23:56;;;;;;;10.60;2.83;;;19.90;99.90;;;18.81;77.35;102411.63;5013696;28;20388;-72
2021/07/20 08:26:54;;;;;;;5.35;2.50;;;20.10;99.90;;;19.15;75.12;102455.16;5018494;28;20069;-72
2021/07/20 08:29:23;;;;;;;6.28;2.47;;;20.30;99.90;;;19.41;73.85;102464.38;5008146;28;20040;-71
2021/07/20 08:32:02;;;;;;;6.30;2.38;;;20.80;99.90;;;19.98;73.63;102520.00;4994785;28;20122;-72
2021/07/20 08:34:32;;;;;;;10.02;2.50;;;21.40;99.90;;;20.87;70.37;102603.03;5019227;28;20445;-71
2021/07/20 08:37:02;;;;;;;9.10;2.10;;;21.90;99.90;;;21.14;67.21;102591.56;5010384;28;20033;-72
2021/07/20 08:39:30;;;;;;;6.57;2.22;;;22.20;99.90;;;20.87;67.84;102554.84;4999626;28;20146;-72
2021/07/20 08:42:38;;;;;;;4.35;2.22;;;21.90;99.90;;;20.51;70.27;102521.28;4998799;28;20021;-72
2021/07/20 08:45:17;;;;;;;;;;;21.90;99.90;;;20.07;72.36;102474.84;5022365;28;20203;-72
2021/07/20 08:48:17;;;;;;;6.90;2.63;;;21.50;99.90;;;20.36;72.28;102506.16;4992726;28;20467;-71
2021/07/20 08:51:13;;;;;;;4.32;2.10;;;21.40;99.90;;;19.55;75.29;102419.06;5017399;28;20082;-71
2021/07/20 08:54:03;;;;;;;6.82;2.65;;;20.90;99.90;;;19.25;79.61;102394.97;4998719;28;20053;-71
2021/07/20 08:56:30;;;;;;;5.65;2.40;;;20.50;99.90;;;18.69;78.14;102342.94;5009543;28;20119;-72
2021/07/20 08:59:06;;;;;;;6.93;2.50;;;20.30;99.90;;;19.19;79.94;102412.19;4988963;28;20474;-71
2021/07/20 09:02:11;;;;;;;11.95;3.08;;;20.30;99.90;;;19.17;77.79;102400.72;4971429;28;25025;-72
2021/07/20 09:05:36;;;;;;;9.10;3.17;;;20.20;99.90;;;19.17;77.46;102407.88;4945100;28;20035;-72
2021/07/20 09:08:27;;;;;;;14.65;2.72;;;20.20;99.90;;;18.67;79.58;102344.81;4966932;28;20388;-72
2021/07/20 09:11:18;;;;;;;8.05;2.72;;;19.60;99.90;;;18.04;80.52;102293.09;4945663;28;20034;-71
2021/07/20 09:14:40;;;;;;;5.70;2.95;;;19.10;99.90;;;17.85;82.27;102306.50;4966700;28;20056;-71
2021/07/20 09:17:29;;;;;;;7.28;2.75;;;18.90;99.90;;;17.59;82.73;102275.88;4950736;28;20030;-71
2021/07/20 09:20:33;;;;;;;7.13;2.38;;;18.60;99.90;;;17.40;83.86;102260.81;4972303;28;20116;-70
2021/07/20 09:23:26;;;;;;;6.63;2.65;;;18.50;99.90;;;17.42;85.15;102264.28;4961902;28;21220;-71
2021/07/20 09:26:24;;;;;;;14.82;3.13;;;18.50;99.90;;;17.39;85.59;102285.75;4970541;28;20041;-71
2021/07/20 09:29:33;;;;;;;8.60;2.83;;;18.50;99.90;;;17.39;85.61;102303.53;4966492;28;20040;-71
2021/07/20 09:32:07;;;;;;;9.65;3.35;;;18.50;99.90;;;17.38;85.40;102299.13;4965355;28;20054;-72
2021/07/20 09:35:13;;;;;;;10.30;3.28;;;18.40;99.90;;;17.23;85.36;102290.09;4992090;28;20449;-71
2021/07/20 09:38:36;;;;;;;9.27;2.78;;;18.30;99.90;;;17.14;84.68;102296.75;4947334;28;20036;-71
2021/07/20 09:41:51;;;;;;;6.90;2.83;;;18.20;99.90;;;17.12;85.42;102287.97;4974983;28;20034;-71
2021/07/20 09:45:22;;;;;;;10.88;3.05;;;18.30;99.90;;;17.20;84.30;102300.91;4948693;28;20041;-71
2021/07/20 09:49:10;;;;;;;9.43;3.00;;;18.30;99.90;;;17.24;84.06;102307.81;4953805;28;20480;-71
2021/07/20 09:53:10;;;;;;;9.68;2.90;;;18.30;99.90;;;17.34;83.17;102317.06;4973240;28;20029;-72
2021/07/20 09:56:56;;;;;;;7.70;2.92;;;18.40;99.90;;;17.39;83.30;102300.84;4958093;28;20069;-71
2021/07/20 10:00:41;;;;;;;8.73;2.55;;;18.50;99.90;;;17.49;82.16;102319.88;4960612;28;20049;-71
2021/07/20 10:04:22;;;;;;;5.32;2.47;;;18.70;99.90;;;17.76;83.44;102353.09;4948659;28;20037;-71
2021/07/20 10:08:01;;;;;;;10.02;2.75;;;18.90;99.90;;;17.91;80.48;102347.97;4966363;28;20493;-71
2021/07/20 10:11:56;;;;;;;12.30;2.80;;;19.00;99.90;;;18.09;79.11;102354.13;4949034;28;20057;-72
2021/07/20 10:15:42;;;;;;;7.32;2.58;;;19.30;99.90;;;18.30;77.29;102370.81;4974719;28;20413;-71
2021/07/20 10:19:13;;;;;;;5.55;2.67;;;19.40;99.90;;;18.37;76.41;102356.19;4957279;28;20033;-71
2021/07/20 10:22:53;;;;;;;6.55;3.00;;;19.40;99.90;;;18.89;76.37;102385.41;4955577;28;20033;-71
2021/07/20 10:27:04;;;;;;;7.43;2.67;;;20.00;99.90;;;19.29;72.75;102409.88;4970025;28;20103;-71
2021/07/20 10:30:55;;;;;;;7.43;2.10;;;20.70;99.90;;;20.23;69.88;102471.25;4971722;28;20029;-71
2021/07/20 10:34:53;;;;;;;7.95;2.47;;;21.10;99.90;;;20.22;68.42;102461.53;4963679;28;20105;-71
2021/07/20 10:38:33;;;;;;;7.68;2.33;;;21.50;99.90;;;21.09;65.80;102508.84;4982431;28;20570;-71
2021/07/20 10:41:48;;;;;;;8.63;2.25;;;22.20;99.90;;;21.12;65.06;102478.31;4946991;28;20445;-71
2021/07/20 10:45:15;;;;;;;4.82;1.83;;;21.90;99.90;;;20.41;63.97;102402.38;4965258;28;20437;-71
2021/07/20 10:48:37;;;;;;;9.10;2.65;;;21.70;99.90;;;21.55;64.62;102524.69;4989767;28;20475;-72
2021/07/20 10:51:34;;;;;;;7.05;2.00;;;23.00;99.90;;;22.97;59.21;102623.44;4965051;28;20408;-71
2021/07/20 10:54:44;;;;;;;5.07;1.88;;;23.30;99.90;;;22.09;57.79;102492.50;4970023;28;20402;-70
2021/07/20 10:57:43;;;;;;;4.07;1.83;;;23.70;99.90;;;23.07;53.99;102575.34;4983102;28;20048;-71